Terminal Aerodrome Forecast
Issued by NWS Dodge City, KS

Home | Current Version | Previous Version | Text Only | Print | Product List | Glossary On
Versions: 1 2 3 4 5 6 7 8 9 10 11 12 13 14 15 16 17 18 19 20 21 22 23 24 25 26 27 28 29 30 31 32 33 34
000
FTUS43 KDDC 192105 AAF
TAFDDC
TAF AMD
KDDC 192105Z 1921/2018 26004KT P6SM OVC022
     FM200300 VRB04KT 5SM BR OVC010
     FM201200 VRB04KT 3SM BR OVC003
      TEMPO 2012/2015 1/2SM FG
     FM201500 VRB04KT 1SM BR OVC010=

USA.gov is the U.S. government's official web portal to all federal, state and local government web resources and services.